Leila H — 8PAN3 — position and weather

sailwx.info

Track history (hours):
 
Tides and Currents Weather Stations Pressure Air Temp Water Temp Dewpoint Dewpoint Depression Visibility Wind Speed Wind Dir Waves Ship Positions

Leila H

Last reported at 2017-Oct-17 09:58 UTC. Time now 2017-Oct-17 10:07 UTC.
Position N 43°06' E 005°53'.

Length 140 m; draft 7 m.

Type: Cargo ship. MMSI: 314442000.

Date/timePositionNaut miles runAvg speedWind from/ knotsBaromVisibWave heightAir tempDewpointWater temp
2017-Oct-17 09:58N 43°06' E 005°53'0 0.0
2017-Oct-17 09:28N 43°06' E 005°53'0 0.0
2017-Oct-17 08:58N 43°06' E 005°53'0 0.0
2017-Oct-17 08:28N 43°06' E 005°53'0 0.0
2017-Oct-17 07:58N 43°06' E 005°53'0 0.0
2017-Oct-17 07:28N 43°06' E 005°53'0 0.0
2017-Oct-17 06:58N 43°06' E 005°53'0 0.0
2017-Oct-17 06:28N 43°06' E 005°53'0 0.0
2017-Oct-17 05:55N 43°06' E 005°53'0 0.0
2017-Oct-17 05:28N 43°06' E 005°53'0 0.0
2017-Oct-17 04:58N 43°06' E 005°53'0 0.0
2017-Oct-17 04:28N 43°06' E 005°53'0 0.0
2017-Oct-17 03:58N 43°06' E 005°53'0 0.0
2017-Oct-17 03:15N 43°06' E 005°53'0 0.0
2017-Oct-17 03:00N 43°06' E 005°53'0 0.0
2017-Oct-17 02:30N 43°06' E 005°53'0 0.0
2017-Oct-17 02:00N 43°06' E 005°53'0 0.0
2017-Oct-17 01:30N 43°06' E 005°53'0 0.0
2017-Oct-17 01:00N 43°06' E 005°53'0 0.0
2017-Oct-17 00:27N 43°06' E 005°53'0 0.0
2017-Oct-17 00:00N 43°06' E 005°53'0 0.0
2017-Oct-16 23:30N 43°06' E 005°53'0 0.0
2017-Oct-16 23:00N 43°06' E 005°53'0 0.0
2017-Oct-16 22:27N 43°06' E 005°53'0 0.0
2017-Oct-16 22:00N 43°06' E 005°53'0 0.0
2017-Oct-16 21:27N 43°06' E 005°53'0 0.0
2017-Oct-16 21:00N 43°06' E 005°53'0 0.0
2017-Oct-16 20:30N 43°06' E 005°53'0 0.0
2017-Oct-16 20:00N 43°06' E 005°53'0 0.0
2017-Oct-16 19:30N 43°06' E 005°53'0 0.0
2017-Oct-16 19:00N 43°06' E 005°53'0 0.0
2017-Oct-16 18:30N 43°06' E 005°53'0 0.0
2017-Oct-16 18:00N 43°06' E 005°53'0 0.0
2017-Oct-16 17:30N 43°06' E 005°53'0 0.0
2017-Oct-16 17:00N 43°06' E 005°53'0 0.0
2017-Oct-16 16:30N 43°06' E 005°53'0 0.0
2017-Oct-16 16:00N 43°06' E 005°53'0 0.0
2017-Oct-16 15:30N 43°06' E 005°53'0 0.0
2017-Oct-16 15:00N 43°06' E 005°53'0 0.0
2017-Oct-16 14:00N 43°06' E 005°53'0 0.0
2017-Oct-16 13:30N 43°06' E 005°53'0 0.0
2017-Oct-16 13:00N 43°06' E 005°53'0 0.0
2017-Oct-16 12:30N 43°06' E 005°53'0 0.0
2017-Oct-16 12:00N 43°06' E 005°53'0 0.0
2017-Oct-16 11:30N 43°06' E 005°53'0 0.0
2017-Oct-16 11:00N 43°06' E 005°53'0 0.0
2017-Oct-16 10:30N 43°06' E 005°53'0 0.0
2017-Oct-16 10:00N 43°06' E 005°53'0 0.0
2017-Oct-16 09:27N 43°06' E 005°53'0 0.0
2017-Oct-16 09:00N 43°06' E 005°53'0 0.0
2017-Oct-16 08:30N 43°06' E 005°53'0 0.0
2017-Oct-16 08:00N 43°06' E 005°53'0 0.0
2017-Oct-16 07:30N 43°06' E 005°53'0 0.0
2017-Oct-16 07:00N 43°06' E 005°53'0 0.0
2017-Oct-16 06:30N 43°06' E 005°53'0 0.0
2017-Oct-16 06:00N 43°06' E 005°53'1 1.5
2017-Oct-16 05:30N 43°06' E 005°54'4 5.2
2017-Oct-16 04:44N 43°05' E 005°59'4 3.3
2017-Oct-16 03:26N 43°00' E 006°00'6 5.1
2017-Oct-16 02:19N 42°55' E 006°02'3 5.4
2017-Oct-16 01:51N 42°53' E 006°04'2 5.7
2017-Oct-16 01:29N 42°51' E 006°05'49311.0
2017-Oct-14 04:33N 36°59' E 013°35'112.3
2017-Oct-14 04:30N 36°58' E 013°35'612.0
2017-Oct-14 04:00N 36°56' E 013°42'611.7
2017-Oct-14 03:30N 36°53' E 013°49'611.6
2017-Oct-14 03:00N 36°51' E 013°55'811.3
2017-Oct-14 02:16N 36°48' E 014°05'311.3
2017-Oct-14 02:00N 36°47' E 014°08'611.4
2017-Oct-14 01:30N 36°45' E 014°15'612.2
2017-Oct-14 00:59N 36°42' E 014°22'612.6
2017-Oct-14 00:30N 36°40' E 014°29'612.4
2017-Oct-14 00:00N 36°38' E 014°37'42511.6
2017-Oct-12 11:20N 36°59' E 023°26'19512.3
2017-Oct-11 19:29N 39°43' E 025°39'  
Track history (hours):
 
Tides and Currents Weather Stations Pressure Air Temp Water Temp Dewpoint Dewpoint Depression Visibility Wind Speed Wind Dir Waves Ship Positions

Leila H

Last reported at 2017-Oct-17 09:58 UTC. Time now 2017-Oct-17 10:07 UTC.
Position N 43°06' E 005°53'.

Length 140 m; draft 7 m.

Type: Cargo ship. MMSI: 314442000.

Date/timePositionNaut miles runAvg speedWind from/ knotsBaromVisibWave heightAir tempDewpointWater temp
2017-Oct-17 09:58N 43°06' E 005°53'0 0.0
2017-Oct-17 09:28N 43°06' E 005°53'0 0.0
2017-Oct-17 08:58N 43°06' E 005°53'0 0.0
2017-Oct-17 08:28N 43°06' E 005°53'0 0.0
2017-Oct-17 07:58N 43°06' E 005°53'0 0.0
2017-Oct-17 07:28N 43°06' E 005°53'0 0.0
2017-Oct-17 06:58N 43°06' E 005°53'0 0.0
2017-Oct-17 06:28N 43°06' E 005°53'0 0.0
2017-Oct-17 05:55N 43°06' E 005°53'0 0.0
2017-Oct-17 05:28N 43°06' E 005°53'0 0.0
2017-Oct-17 04:58N 43°06' E 005°53'0 0.0
2017-Oct-17 04:28N 43°06' E 005°53'0 0.0
2017-Oct-17 03:58N 43°06' E 005°53'0 0.0
2017-Oct-17 03:15N 43°06' E 005°53'0 0.0
2017-Oct-17 03:00N 43°06' E 005°53'0 0.0
2017-Oct-17 02:30N 43°06' E 005°53'0 0.0
2017-Oct-17 02:00N 43°06' E 005°53'0 0.0
2017-Oct-17 01:30N 43°06' E 005°53'0 0.0
2017-Oct-17 01:00N 43°06' E 005°53'0 0.0
2017-Oct-17 00:27N 43°06' E 005°53'0 0.0
2017-Oct-17 00:00N 43°06' E 005°53'0 0.0
2017-Oct-16 23:30N 43°06' E 005°53'0 0.0
2017-Oct-16 23:00N 43°06' E 005°53'0 0.0
2017-Oct-16 22:27N 43°06' E 005°53'0 0.0
2017-Oct-16 22:00N 43°06' E 005°53'0 0.0
2017-Oct-16 21:27N 43°06' E 005°53'0 0.0
2017-Oct-16 21:00N 43°06' E 005°53'0 0.0
2017-Oct-16 20:30N 43°06' E 005°53'0 0.0
2017-Oct-16 20:00N 43°06' E 005°53'0 0.0
2017-Oct-16 19:30N 43°06' E 005°53'0 0.0
2017-Oct-16 19:00N 43°06' E 005°53'0 0.0
2017-Oct-16 18:30N 43°06' E 005°53'0 0.0
2017-Oct-16 18:00N 43°06' E 005°53'0 0.0
2017-Oct-16 17:30N 43°06' E 005°53'0 0.0
2017-Oct-16 17:00N 43°06' E 005°53'0 0.0
2017-Oct-16 16:30N 43°06' E 005°53'0 0.0
2017-Oct-16 16:00N 43°06' E 005°53'0 0.0
2017-Oct-16 15:30N 43°06' E 005°53'0 0.0
2017-Oct-16 15:00N 43°06' E 005°53'0 0.0
2017-Oct-16 14:00N 43°06' E 005°53'0 0.0
2017-Oct-16 13:30N 43°06' E 005°53'0 0.0
2017-Oct-16 13:00N 43°06' E 005°53'0 0.0
2017-Oct-16 12:30N 43°06' E 005°53'0 0.0
2017-Oct-16 12:00N 43°06' E 005°53'0 0.0
2017-Oct-16 11:30N 43°06' E 005°53'0 0.0
2017-Oct-16 11:00N 43°06' E 005°53'0 0.0
2017-Oct-16 10:30N 43°06' E 005°53'0 0.0
2017-Oct-16 10:00N 43°06' E 005°53'0 0.0
2017-Oct-16 09:27N 43°06' E 005°53'0 0.0
2017-Oct-16 09:00N 43°06' E 005°53'0 0.0
2017-Oct-16 08:30N 43°06' E 005°53'0 0.0
2017-Oct-16 08:00N 43°06' E 005°53'0 0.0
2017-Oct-16 07:30N 43°06' E 005°53'0 0.0
2017-Oct-16 07:00N 43°06' E 005°53'0 0.0
2017-Oct-16 06:30N 43°06' E 005°53'0 0.0
2017-Oct-16 06:00N 43°06' E 005°53'1 1.5
2017-Oct-16 05:30N 43°06' E 005°54'4 5.2
2017-Oct-16 04:44N 43°05' E 005°59'4 3.3
2017-Oct-16 03:26N 43°00' E 006°00'6 5.1
2017-Oct-16 02:19N 42°55' E 006°02'3 5.4
2017-Oct-16 01:51N 42°53' E 006°04'2 5.7
2017-Oct-16 01:29N 42°51' E 006°05'49311.0
2017-Oct-14 04:33N 36°59' E 013°35'112.3
2017-Oct-14 04:30N 36°58' E 013°35'612.0
2017-Oct-14 04:00N 36°56' E 013°42'611.7
2017-Oct-14 03:30N 36°53' E 013°49'611.6
2017-Oct-14 03:00N 36°51' E 013°55'811.3
2017-Oct-14 02:16N 36°48' E 014°05'311.3
2017-Oct-14 02:00N 36°47' E 014°08'611.4
2017-Oct-14 01:30N 36°45' E 014°15'612.2
2017-Oct-14 00:59N 36°42' E 014°22'612.6
2017-Oct-14 00:30N 36°40' E 014°29'612.4
2017-Oct-14 00:00N 36°38' E 014°37'42511.6
2017-Oct-12 11:20N 36°59' E 023°26'19512.3
2017-Oct-11 19:29N 39°43' E 025°39'  

Dump ship's entire track history